Time;durP1;ratioP1;P1;durP2;ratioP2;P2;SDS_P1;SDS_P2;PMS_P1;PMS_P2;Temp;Humidity;BMP_temperature;BMP_pressure;BME280_temperature;BME280_humidity;BME280_pressure;Samples;Min_cycle;Max_cycle;Signal;HPM_P1;HPM_P2
2022/06/05 00:00:22;;;;;;;9.18;4.53;;;;;;;21.95;65.24;99929.53;7765931;32;39109;-71
2022/06/05 00:04:45;;;;;;;9.95;4.37;;;;;;;22.11;63.94;99916.63;7766090;32;39847;-72
2022/06/05 00:09:07;;;;;;;10.45;4.57;;;;;;;21.94;64.28;99917.63;7765860;32;37865;-72
2022/06/05 00:13:49;;;;;;;6.37;4.20;;;;;;;21.97;64.04;99921.69;7765273;32;37697;-71
2022/06/05 00:18:06;;;;;;;10.43;4.47;;;;;;;21.96;63.84;99931.16;7760159;32;38862;-71
2022/06/05 00:22:22;;;;;;;7.82;4.18;;;;;;;21.98;63.74;99916.94;7765838;32;39977;-73
2022/06/05 00:27:06;;;;;;;11.07;4.40;;;;;;;21.86;64.19;99915.78;7765357;32;37832;-71
2022/06/05 00:31:38;;;;;;;8.80;4.60;;;;;;;21.99;64.21;99905.50;7765434;32;36912;-72
2022/06/05 00:36:08;;;;;;;8.77;4.57;;;;;;;21.94;64.46;99912.09;7765772;32;39988;-72
2022/06/05 00:40:34;;;;;;;6.90;4.05;;;;;;;21.89;64.64;99920.62;7764343;32;40768;-73
2022/06/05 00:44:54;;;;;;;7.28;3.62;;;;;;;21.95;64.21;99896.22;7765668;32;37866;-71
2022/06/05 00:49:11;;;;;;;6.85;3.60;;;;;;;21.74;64.54;99894.34;7765077;32;37660;-71
2022/06/05 00:53:27;;;;;;;7.53;4.00;;;;;;;21.64;65.01;99889.25;7764208;32;39204;-71
2022/06/05 00:57:43;;;;;;;6.18;3.85;;;;;;;21.75;64.41;99892.41;7765197;32;39992;-72
2022/06/05 01:01:59;;;;;;;11.43;4.37;;;;;;;21.83;64.04;99893.44;7764154;32;38017;-72
2022/06/05 01:06:15;;;;;;;10.88;4.32;;;;;;;21.82;64.06;99892.66;7764890;32;36742;-72
2022/06/05 01:11:10;;;;;;;8.48;4.03;;;;;;;21.63;65.06;99887.66;7765403;32;39658;-72
2022/06/05 01:15:36;;;;;;;12.07;4.87;;;;;;;21.66;64.70;99884.19;7765102;32;40696;-73
2022/06/05 01:19:56;;;;;;;9.43;4.05;;;;;;;21.66;64.56;99884.19;7764409;32;38082;-71
2022/06/05 01:24:33;;;;;;;16.58;4.95;;;;;;;21.73;64.36;99884.44;7756104;32;37130;-72
2022/06/05 01:28:54;;;;;;;12.27;4.25;;;;;;;21.64;64.48;99882.91;7736088;32;39514;-72
2022/06/05 01:33:22;;;;;;;14.48;4.50;;;;;;;21.47;64.95;99881.97;7751230;32;39180;-72
2022/06/05 01:37:45;;;;;;;8.60;4.20;;;;;;;21.36;65.03;99887.09;7763733;32;38508;-71
2022/06/05 01:42:29;;;;;;;9.00;4.05;;;;;;;21.42;64.35;99876.59;7763434;32;36642;-72
2022/06/05 01:46:46;;;;;;;13.40;4.57;;;;;;;21.32;64.81;99890.91;7762536;32;39038;-71
2022/06/05 01:51:06;;;;;;;6.15;4.40;;;;;;;21.23;65.07;99881.84;7764513;32;40931;-72
2022/06/05 01:55:25;;;;;;;8.13;4.68;;;;;;;21.26;64.79;99875.62;7763260;32;37834;-73
2022/06/05 01:59:51;;;;;;;8.38;4.30;;;;;;;21.12;65.11;99870.38;7760746;32;36771;-72
2022/06/05 02:04:10;;;;;;;8.88;5.05;;;;;;;21.37;64.44;99871.28;7762992;32;39901;-72
2022/06/05 02:08:46;;;;;;;8.63;4.80;;;;;;;21.26;64.93;99876.41;7764165;32;40778;-72
2022/06/05 02:13:03;;;;;;;10.57;5.18;;;;;;;21.41;64.61;99865.84;7763917;32;38005;-72
2022/06/05 02:17:19;;;;;;;9.63;4.53;;;;;;;21.36;65.02;99855.78;7763977;32;37055;-72
2022/06/05 02:21:37;;;;;;;10.25;4.87;;;;;;;21.27;64.98;99850.31;7764074;32;40016;-75
2022/06/05 02:25:54;;;;;;;11.12;4.65;;;;;;;21.17;64.58;99850.75;7763769;32;38857;-71
2022/06/05 02:30:12;;;;;;;12.32;4.95;;;;;;;21.26;64.11;99848.69;7762225;32;38047;-71
2022/06/05 02:34:53;;;;;;;9.15;5.03;;;;;;;21.31;64.20;99845.72;7762478;32;37086;-73
2022/06/05 02:39:19;;;;;;;11.88;4.85;;;;;;;21.36;64.72;99850.22;7764276;32;38868;-75
2022/06/05 02:44:29;;;;;;;10.75;4.90;;;;;;;21.21;65.04;99857.22;7766626;32;40665;-74
2022/06/05 02:49:06;;;;;;;12.43;4.60;;;;;;;21.27;64.39;99868.94;7766518;32;38639;-74
2022/06/05 02:53:22;;;;;;;9.23;4.87;;;;;;;21.36;63.78;99866.88;7723742;32;37130;-73
2022/06/05 02:57:38;;;;;;;7.93;4.82;;;;;;;21.12;64.18;99876.72;7747125;32;40175;-73
2022/06/05 03:06:30;;;;;;;8.55;4.53;;;;;;;21.11;64.64;99879.84;7766281;32;38633;-74
2022/06/05 03:10:46;;;;;;;12.77;4.75;;;;;;;20.93;64.74;99880.00;7767151;32;36549;-74
2022/06/05 03:15:04;;;;;;;11.82;4.85;;;;;;;21.07;63.92;99881.66;7766331;32;40052;-75
2022/06/05 03:19:20;;;;;;;7.97;4.50;;;;;;;21.01;64.12;99892.97;7764712;32;40014;-73
2022/06/05 03:23:36;;;;;;;7.82;4.40;;;;;;;20.90;64.96;99886.19;7766110;32;37846;-73
2022/06/05 03:27:53;;;;;;;7.55;4.07;;;;;;;20.88;64.88;99894.06;7766432;32;37058;-74
2022/06/05 03:32:09;;;;;;;13.25;4.53;;;;;;;20.85;64.73;99903.03;7766051;32;39988;-74
2022/06/05 03:36:25;;;;;;;6.80;4.32;;;;;;;20.87;64.46;99911.84;7766321;32;40115;-74
2022/06/05 03:40:43;;;;;;;6.28;4.32;;;;;;;20.80;64.67;99908.81;7764577;32;39072;-73
2022/06/05 03:44:59;;;;;;;8.07;4.65;;;;;;;20.82;64.96;99906.50;7765313;32;36081;-73
2022/06/05 03:49:15;;;;;;;8.70;5.60;;;;;;;20.85;65.53;99922.44;7765740;32;39023;-74
2022/06/05 03:53:31;;;;;;;7.95;4.78;;;;;;;20.98;65.42;99926.91;7766356;32;39723;-74
2022/06/05 03:57:48;;;;;;;6.47;4.30;;;;;;;20.80;66.21;99925.44;7765441;32;37698;-75
2022/06/05 04:02:05;;;;;;;6.72;4.28;;;;;;;20.70;66.44;99928.59;7764687;32;36879;-75
2022/06/05 04:06:27;;;;;;;9.13;4.80;;;;;;;20.49;67.75;99942.34;7765484;32;39341;-73
2022/06/05 04:10:47;;;;;;;8.77;4.82;;;;;;;20.65;66.91;99934.34;7764668;32;39804;-74
2022/06/05 04:15:03;;;;;;;8.57;4.30;;;;;;;20.80;66.63;99947.59;7765690;32;38030;-74
2022/06/05 04:19:20;;;;;;;14.98;4.43;;;;;;;20.78;67.19;99947.09;7765871;32;37693;-75
2022/06/05 04:23:36;;;;;;;9.68;5.18;;;;;;;20.81;67.10;99949.19;7764127;32;39222;-73
2022/06/05 04:27:54;;;;;;;15.48;6.68;;;;;;;21.02;67.17;99957.50;7765097;32;39945;-80
2022/06/05 04:32:10;;;;;;;8.57;5.45;;;;;;;21.16;67.94;99963.59;7764784;32;37879;-80
2022/06/05 04:36:27;;;;;;;17.60;6.35;;;;;;;21.29;67.96;99961.69;7763685;32;35538;-80
2022/06/05 04:40:43;;;;;;;14.98;7.30;;;;;;;21.44;67.04;99968.59;7765624;32;39388;-80
2022/06/05 04:45:00;;;;;;;12.98;6.35;;;;;;;21.56;66.92;99973.41;7765077;32;41125;-80
2022/06/05 04:49:16;;;;;;;10.32;6.65;;;;;;;21.74;67.19;99974.81;7765440;32;38173;-80
2022/06/05 04:53:32;;;;;;;14.68;7.15;;;;;;;22.04;66.80;99963.56;7763735;32;36975;-80
2022/06/05 04:57:48;;;;;;;13.55;7.37;;;;;;;22.09;66.26;99973.62;7764962;32;39298;-81
2022/06/05 05:02:04;;;;;;;12.80;7.50;;;;;;;22.16;66.36;99981.38;7763594;32;39984;-78
2022/06/05 05:06:21;;;;;;;11.50;6.05;;;;;;;21.99;66.61;99993.50;7765219;32;39426;-81
2022/06/05 05:10:37;;;;;;;13.55;7.45;;;;;;;22.22;65.72;99991.13;7765293;32;37710;-80
2022/06/05 05:14:53;;;;;;;10.48;6.87;;;;;;;22.06;65.73;99991.78;7765059;32;39196;-79
2022/06/05 05:19:10;;;;;;;12.05;7.20;;;;;;;22.37;65.42;99984.09;7765083;32;40683;-80
2022/06/05 05:23:26;;;;;;;14.27;7.80;;;;;;;22.62;64.95;99987.69;7764873;32;38659;-82
2022/06/05 05:27:42;;;;;;;14.18;8.50;;;;;;;22.78;64.33;99996.13;7764608;32;37625;-73
2022/06/05 05:31:58;;;;;;;17.33;10.27;;;;;;;22.72;64.71;100000.31;7764639;32;39267;-74
2022/06/05 05:36:14;;;;;;;18.92;11.32;;;;;;;21.80;67.84;100011.50;7764827;32;39736;-72
2022/06/05 05:45:05;;;;;;;15.95;10.00;;;;;;;22.41;65.41;100005.28;7764525;32;37836;-75
2022/06/05 05:49:21;;;;;;;15.80;9.80;;;;;;;22.62;64.36;99993.25;7764666;32;39266;-72
2022/06/05 05:53:37;;;;;;;18.10;10.27;;;;;;;22.71;63.99;99987.56;7763622;32;40728;-73
2022/06/05 05:57:54;;;;;;;18.83;11.93;;;;;;;22.49;65.18;99987.69;7764418;32;38567;-75
2022/06/05 06:02:14;;;;;;;22.83;11.68;;;;;;;22.55;64.68;99976.34;7764117;32;36879;-79
2022/06/05 06:06:35;;;;;;;17.90;10.55;;;;;;;22.52;65.30;99974.25;7764238;32;39285;-82
2022/06/05 06:10:51;;;;;;;19.98;10.27;;;;;;;22.90;63.82;99984.97;7763925;32;40672;-82
2022/06/05 06:15:08;;;;;;;17.85;10.00;;;;;;;22.91;63.51;99981.03;7763814;32;38725;-81
2022/06/05 06:19:24;;;;;;;16.15;9.43;;;;;;;23.10;62.80;99968.53;7763500;32;36831;-79
2022/06/05 06:23:40;;;;;;;16.33;9.73;;;;;;;22.92;62.98;99979.06;7764062;32;39314;-77
2022/06/05 06:27:57;;;;;;;15.90;9.60;;;;;;;23.05;62.35;99967.59;7763806;32;39953;-77
2022/06/05 06:32:13;;;;;;;14.50;8.77;;;;;;;23.14;62.59;99978.56;7763456;32;38471;-71
2022/06/05 06:36:30;;;;;;;13.70;9.07;;;;;;;23.54;60.89;99971.34;7763753;32;37008;-71
2022/06/05 06:41:09;;;;;;;12.35;8.05;;;;;;;23.22;62.32;99969.28;7762833;32;39327;-71
2022/06/05 06:45:25;;;;;;;14.65;8.32;;;;;;;23.58;61.11;99950.81;7763355;32;40898;-81
2022/06/05 06:49:41;;;;;;;13.00;8.38;;;;;;;23.78;60.71;99973.19;7762934;32;37841;-80
2022/06/05 06:53:57;;;;;;;15.57;8.25;;;;;;;24.21;59.30;99965.97;7763138;32;37768;-84
2022/06/05 06:58:13;;;;;;;15.52;7.87;;;;;;;24.45;58.83;99972.53;7762967;32;39117;-84
2022/06/05 07:02:29;;;;;;;12.93;8.27;;;;;;;24.61;58.36;99973.38;7763027;32;37950;-83
2022/06/05 07:06:45;;;;;;;12.27;7.55;;;;;;;24.85;56.76;99968.69;7762839;32;37640;-84
2022/06/05 07:11:04;;;;;;;11.00;7.75;;;;;;;24.77;57.05;99966.91;7762282;32;37564;-84
2022/06/05 07:15:20;;;;;;;14.70;7.35;;;;;;;24.65;56.88;99970.66;7761931;32;39388;-82
2022/06/05 07:19:36;;;;;;;10.52;7.07;;;;;;;25.28;54.90;99970.47;7758097;32;39812;-81
2022/06/05 07:23:53;;;;;;;12.80;6.45;;;;;;;25.08;55.24;99966.03;7763073;32;38177;-80
2022/06/05 07:28:09;;;;;;;11.65;6.70;;;;;;;25.59;53.64;99973.47;7766168;32;37717;-81
2022/06/05 07:32:25;;;;;;;9.85;6.00;;;;;;;25.58;53.53;99971.84;7766166;32;39855;-84
2022/06/05 07:36:42;;;;;;;10.98;5.65;;;;;;;25.37;53.54;99973.03;7765849;32;40558;-84
2022/06/05 07:40:58;;;;;;;9.38;6.78;;;;;;;25.65;51.09;99977.56;7765825;32;38174;-84
2022/06/05 07:45:15;;;;;;;9.63;6.25;;;;;;;24.78;53.46;99988.06;7766227;32;37645;-81
2022/06/05 07:49:32;;;;;;;9.15;5.93;;;;;;;24.87;54.03;99989.50;7765255;32;39922;-81
2022/06/05 07:58:23;;;;;;;7.87;5.43;;;;;;;25.82;52.12;99988.28;7765996;32;37906;-81
2022/06/05 08:02:40;;;;;;;10.77;5.68;;;;;;;26.06;50.05;99997.50;7765484;32;37154;-79
2022/06/05 08:06:57;;;;;;;7.90;5.65;;;;;;;25.68;50.28;99999.97;7764953;32;39399;-80
2022/06/05 08:11:14;;;;;;;8.23;5.65;;;;;;;26.03;48.61;100004.62;7765643;32;39791;-80
2022/06/05 08:15:30;;;;;;;6.55;4.80;;;;;;;26.32;47.50;100007.09;7765650;32;38571;-84
2022/06/05 08:19:46;;;;;;;7.25;4.90;;;;;;;26.46;48.06;99996.19;7765745;32;37025;-71
2022/06/05 08:24:04;;;;;;;7.90;5.18;;;;;;;26.34;47.25;100001.97;7765702;32;39985;-70
2022/06/05 08:28:23;;;;;;;11.40;5.85;;;;;;;26.16;48.11;100010.84;7765440;32;39988;-70
2022/06/05 08:32:41;;;;;;;12.15;5.40;;;;;;;26.32;45.97;100009.91;7765543;32;38794;-71
2022/06/05 08:41:42;;;;;;;9.32;4.90;;;;;;;27.41;46.32;99999.16;7765755;32;38997;-70
2022/06/05 08:46:12;;;;;;;7.03;4.82;;;;;;;27.64;44.44;99999.03;7765154;32;39948;-71
2022/06/05 08:50:46;;;;;;;8.23;4.95;;;;;;;27.35;43.27;99993.09;7764729;32;37192;-71
2022/06/05 08:55:06;;;;;;;7.75;4.62;;;;;;;27.06;45.25;99986.28;7764467;32;37619;-71
2022/06/05 08:59:29;;;;;;;8.10;4.45;;;;;;;27.48;43.70;99976.84;7763948;32;40048;-72
2022/06/05 09:04:09;;;;;;;7.47;4.18;;;;;;;28.21;43.77;99960.38;7764174;32;39896;-72
2022/06/05 09:08:30;;;;;;;6.30;4.60;;;;;;;27.82;42.87;99968.41;7762825;32;38521;-73
2022/06/05 09:12:58;;;;;;;7.85;4.60;;;;;;;27.98;42.16;99960.59;7750944;32;37642;-72
2022/06/05 09:17:16;;;;;;;7.78;4.72;;;;;;;27.64;43.05;99968.22;7763606;32;39521;-72
2022/06/05 09:21:37;;;;;;;8.00;4.37;;;;;;;27.61;48.15;99958.59;7763936;32;38892;-72
2022/06/05 09:26:22;;;;;;;5.93;3.95;;;;;;;28.57;41.19;99971.91;7765197;32;37612;-72
2022/06/05 09:30:51;;;;;;;6.35;4.32;;;;;;;28.47;44.16;99978.22;7710473;32;37675;-72
2022/06/05 09:35:24;;;;;;;8.60;4.32;;;;;;;28.16;43.03;99980.38;7711440;32;39011;-71
2022/06/05 09:39:50;;;;;;;9.73;4.37;;;;;;;28.12;43.23;99992.75;7710080;32;40775;-72
2022/06/05 09:44:31;;;;;;;9.48;4.43;;;;;;;28.40;42.06;99989.38;7710035;32;38592;-73
2022/06/05 09:49:02;;;;;;;6.43;4.57;;;;;;;28.53;42.15;99995.47;7710816;32;37710;-72
2022/06/05 09:53:31;;;;;;;7.75;4.57;;;;;;;28.57;41.54;99990.75;7711122;32;40025;-72
2022/06/05 10:02:37;;;;;;;10.48;4.65;;;;;;;28.20;41.06;100003.63;7709734;32;38827;-72
2022/06/05 10:07:06;;;;;;;7.78;4.68;;;;;;;27.84;42.32;99986.44;7709745;32;37692;-72
2022/06/05 10:11:42;;;;;;;8.20;5.07;;;;;;;28.43;41.40;99977.38;7710772;32;39157;-73
2022/06/05 10:16:10;;;;;;;12.45;5.43;;;;;;;28.97;40.90;99994.59;7710422;32;40727;-73
2022/06/05 10:20:34;;;;;;;8.43;4.97;;;;;;;28.51;40.18;100003.47;7710321;32;38062;-71
2022/06/05 10:25:14;;;;;;;7.30;4.40;;;;;;;28.70;39.53;100006.06;7710301;32;36908;-72
2022/06/05 10:29:45;;;;;;;6.95;4.97;;;;;;;28.71;40.68;100004.06;7755403;32;39345;-72
2022/06/05 10:34:01;;;;;;;8.40;4.95;;;;;;;28.75;42.67;99994.47;7762884;32;40900;-73
2022/06/05 10:38:48;;;;;;;11.38;5.43;;;;;;;28.94;39.86;99998.19;7763135;32;38250;-72
2022/06/05 10:43:13;;;;;;;7.28;4.87;;;;;;;28.80;39.36;99984.88;7762627;32;36992;-73
2022/06/05 10:47:47;;;;;;;9.63;5.32;;;;;;;29.37;40.92;99987.19;7761723;32;39991;-72
2022/06/05 10:52:21;;;;;;;6.78;4.00;;;;;;;28.97;39.40;99998.19;7766614;32;39946;-72
2022/06/05 10:56:57;;;;;;;6.62;4.62;;;;;;;29.49;40.39;99986.03;7773993;32;38714;-72
2022/06/05 11:01:35;;;;;;;8.30;4.43;;;;;;;29.88;37.33;99968.50;7764587;32;36696;-82
2022/06/05 11:06:19;;;;;;;6.07;4.15;;;;;;;29.69;38.85;99961.22;7766835;32;39285;-71
2022/06/05 11:15:59;;;;;;;6.25;4.53;;;;;;;29.92;38.07;99947.63;7766685;32;38598;-69
2022/06/05 11:20:21;;;;;;;6.60;4.50;;;;;;;30.40;38.06;99942.84;7765623;32;37698;-71
2022/06/05 11:25:20;;;;;;;5.83;4.10;;;;;;;30.15;36.63;99944.44;7765561;32;38415;-71
2022/06/05 11:29:39;;;;;;;7.68;4.40;;;;;;;30.01;38.25;99946.44;7766265;32;40664;-72
2022/06/05 11:34:09;;;;;;;10.55;4.35;;;;;;;30.96;35.60;99934.69;7766396;32;38651;-71
2022/06/05 11:38:26;;;;;;;8.68;4.60;;;;;;;30.82;36.47;99929.88;7765123;32;36669;-72
2022/06/05 11:43:03;;;;;;;7.10;4.47;;;;;;;30.63;35.19;99925.50;7766258;32;39806;-72
2022/06/05 11:47:25;;;;;;;8.65;5.20;;;;;;;30.86;35.96;99934.28;7766071;32;41197;-72
2022/06/05 11:51:59;;;;;;;8.27;4.93;;;;;;;31.00;33.92;99929.88;7764765;32;39928;-72
2022/06/05 11:56:31;;;;;;;7.82;4.97;;;;;;;30.83;34.15;99931.50;7765972;32;36914;-72
2022/06/05 12:00:52;;;;;;;11.37;5.07;;;;;;;31.12;35.92;99912.50;7765926;32;39280;-72
2022/06/05 12:05:26;;;;;;;6.55;4.68;;;;;;;30.88;35.68;99922.63;7764694;32;40577;-70
2022/06/05 12:10:19;;;;;;;6.47;4.65;;;;;;;30.65;32.71;99923.09;7765388;32;37896;-72
2022/06/05 12:14:43;;;;;;;5.30;3.97;;;;;;;30.73;34.48;99907.00;7765981;32;36769;-70
2022/06/05 12:19:28;;;;;;;7.30;4.85;;;;;;;31.03;32.16;99906.53;7765916;32;39701;-70
2022/06/05 12:24:01;;;;;;;8.27;4.53;;;;;;;31.61;32.11;99901.37;7765718;32;40775;-71
2022/06/05 12:28:38;;;;;;;5.25;4.10;;;;;;;32.02;32.08;99883.75;7764399;32;38477;-71
2022/06/05 12:33:16;;;;;;;5.72;3.90;;;;;;;31.86;30.83;99878.66;7764461;32;36955;-71
2022/06/05 12:37:53;;;;;;;4.90;3.47;;;;;;;32.07;30.44;99869.25;7765662;32;39968;-70
2022/06/05 12:42:23;;;;;;;5.18;3.85;;;;;;;32.40;31.03;99866.91;7764329;32;39942;-71
2022/06/05 12:46:45;;;;;;;8.63;4.32;;;;;;;33.20;30.28;99850.66;7765335;32;38086;-72
2022/06/05 12:51:14;;;;;;;8.10;4.37;;;;;;;33.12;30.17;99855.56;7763201;32;37578;-71
2022/06/05 12:55:36;;;;;;;5.85;3.55;;;;;;;32.54;29.79;99849.00;7762144;32;39211;-71
2022/06/05 13:00:03;;;;;;;8.25;3.65;;;;;;;32.45;31.64;99849.53;7763918;32;39920;-72
2022/06/05 13:04:26;;;;;;;5.35;3.80;;;;;;;32.23;29.23;99839.69;7765414;32;38113;-71
2022/06/05 13:08:48;;;;;;;4.22;3.35;;;;;;;32.32;29.14;99837.16;7765336;32;36986;-71
2022/06/05 13:13:19;;;;;;;4.68;3.08;;;;;;;32.69;29.20;99827.91;7765407;32;40064;-71
2022/06/05 13:18:07;;;;;;;8.60;3.78;;;;;;;32.68;31.30;99825.50;7765241;32;39859;-71
2022/06/05 13:22:35;;;;;;;5.62;3.25;;;;;;;33.27;28.08;99821.47;7763267;32;39622;-71
2022/06/05 13:27:03;;;;;;;4.82;3.40;;;;;;;33.48;26.26;99820.38;7764797;32;36839;-71
2022/06/05 13:31:27;;;;;;;3.92;3.08;;;;;;;33.73;27.22;99811.50;7764908;32;39994;-71
2022/06/05 13:35:45;;;;;;;9.05;3.65;;;;;;;33.68;27.96;99804.31;7763645;32;39676;-70
2022/06/05 13:40:18;;;;;;;4.03;3.08;;;;;;;33.16;26.76;99810.34;7763452;32;37541;-71
2022/06/05 13:44:35;;;;;;;4.35;3.35;;;;;;;33.32;28.22;99804.06;7764207;32;36895;-72
2022/06/05 13:49:31;;;;;;;5.80;3.03;;;;;;;33.70;27.50;99803.06;7764537;32;39413;-70
2022/06/05 13:53:53;;;;;;;3.97;3.00;;;;;;;33.56;26.07;99796.41;7764312;32;39879;-71
2022/06/05 13:58:30;;;;;;;5.47;3.33;;;;;;;33.60;28.30;99787.84;7763283;32;37830;-71
2022/06/05 14:02:57;;;;;;;4.65;3.40;;;;;;;33.30;27.50;99781.88;7765047;32;37505;-71
2022/06/05 14:07:20;;;;;;;6.95;3.42;;;;;;;32.58;28.44;99776.41;7777445;32;40067;-70
2022/06/05 14:11:44;;;;;;;5.25;3.28;;;;;;;32.68;28.22;99757.75;7766497;32;39889;-71
2022/06/05 14:16:01;;;;;;;6.15;2.67;;;;;;;32.51;27.03;99768.84;7773434;32;37886;-70
2022/06/05 14:20:23;;;;;;;8.85;3.40;;;;;;;32.92;27.66;99756.59;7767212;32;36948;-71
2022/06/05 14:24:44;;;;;;;4.90;2.75;;;;;;;33.08;27.80;99758.81;7789901;32;39204;-72
2022/06/05 14:29:00;;;;;;;5.57;2.97;;;;;;;33.28;28.35;99744.78;7779776;32;39676;-72
2022/06/05 14:33:20;;;;;;;4.37;2.97;;;;;;;33.33;27.62;99748.38;7766938;32;38671;-71
2022/06/05 14:37:38;;;;;;;4.15;2.58;;;;;;;33.62;26.39;99743.81;7782758;32;36735;-71
2022/06/05 14:42:18;;;;;;;3.47;2.92;;;;;;;33.67;26.23;99734.09;7766667;32;40020;-70
2022/06/05 14:47:03;;;;;;;7.60;2.90;;;;;;;33.71;26.45;99729.16;7766838;32;39935;-71
2022/06/05 14:52:03;;;;;;;3.85;2.90;;;;;;;33.27;26.07;99726.25;7765640;32;38688;-70
2022/06/05 15:01:41;;;;;;;4.97;2.70;;;;;;;32.97;28.80;99713.00;7764854;32;38216;-71
2022/06/05 15:06:00;;;;;;;5.22;3.42;;;;;;;33.55;26.86;99717.69;7750982;32;39801;-71
2022/06/05 15:10:46;;;;;;;4.68;3.08;;;;;;;33.83;26.45;99713.59;7766310;32;36922;-72
2022/06/05 15:15:10;;;;;;;4.07;3.10;;;;;;;33.22;26.29;99721.09;7766266;32;36940;-70
2022/06/05 15:19:32;;;;;;;16.73;14.93;;;;;;;33.23;26.72;99725.50;7766327;32;39798;-71
2022/06/05 15:23:56;;;;;;;;;;;;;;;32.98;26.07;99720.25;7766020;32;40584;-72
2022/06/05 15:28:40;;;;;;;6.22;5.50;;;;;;;33.81;25.38;99705.53;7763729;32;38982;-71
2022/06/05 15:33:11;;;;;;;3.85;2.90;;;;;;;33.63;25.05;99705.84;7764725;32;37718;-72
2022/06/05 15:37:48;;;;;;;13.48;8.13;;;;;;;33.78;24.23;99697.13;7753273;32;39359;-71
2022/06/05 15:42:16;;;;;;;4.87;3.15;;;;;;;33.46;24.50;99698.47;7765899;32;40270;-71
2022/06/05 15:46:51;;;;;;;3.90;3.28;;;;;;;33.48;24.79;99704.53;7764184;32;37893;-71
2022/06/05 15:51:20;;;;;;;6.80;3.22;;;;;;;32.88;25.65;99682.47;7765421;32;36850;-72
2022/06/05 15:56:06;;;;;;;5.05;3.40;;;;;;;32.87;25.26;99697.81;7764114;32;39250;-71
2022/06/05 16:00:28;;;;;;;3.22;2.87;;;;;;;32.43;25.91;99702.44;7764242;32;40064;-71
2022/06/05 16:04:44;;;;;;;10.77;6.97;;;;;;;32.03;26.08;99690.03;7763829;32;38696;-71
2022/06/05 16:09:39;;;;;;;4.72;3.53;;;;;;;32.35;26.14;99684.81;7765225;32;37007;-70
2022/06/05 16:14:02;;;;;;;6.53;3.45;;;;;;;32.08;26.12;99687.59;7734140;32;39942;-71
2022/06/05 16:18:59;;;;;;;6.68;4.18;;;;;;;32.04;27.23;99678.34;7765338;32;39685;-71
2022/06/05 16:23:24;;;;;;;6.75;3.55;;;;;;;31.91;28.02;99671.63;7764978;32;37873;-71
2022/06/05 16:27:52;;;;;;;7.25;5.10;;;;;;;31.96;26.88;99674.00;7764980;32;37649;-71
2022/06/05 16:32:34;;;;;;;5.55;3.65;;;;;;;31.52;27.21;99676.50;7765254;32;38129;-71
2022/06/05 16:41:40;;;;;;;4.53;3.20;;;;;;;31.41;26.97;99685.03;7764522;32;37958;-71
2022/06/05 16:46:13;;;;;;;9.73;3.67;;;;;;;31.45;27.30;99680.16;7765367;32;37026;-71
2022/06/05 16:50:37;;;;;;;8.27;5.30;;;;;;;31.12;27.28;99680.87;7765103;32;39248;-71
2022/06/05 16:55:18;;;;;;;17.05;10.10;;;;;;;31.17;27.79;99686.06;7764247;32;41188;-72
2022/06/05 16:59:38;;;;;;;14.65;8.90;;;;;;;30.95;28.17;99679.78;7763904;32;38015;-73
2022/06/05 17:04:10;;;;;;;12.10;7.43;;;;;;;30.96;28.18;99692.62;7765124;32;36733;-71
2022/06/05 17:08:44;;;;;;;7.82;4.40;;;;;;;30.49;29.39;99685.28;7783366;32;39294;-72
2022/06/05 17:13:15;;;;;;;9.15;4.62;;;;;;;30.70;28.61;99683.53;7791099;32;40854;-71
2022/06/05 17:17:37;;;;;;;8.60;5.35;;;;;;;30.21;29.51;99691.81;7791798;32;38889;-71
2022/06/05 17:22:27;;;;;;;8.55;5.05;;;;;;;30.21;29.41;99682.59;7789348;32;36934;-71
2022/06/05 17:27:28;;;;;;;7.85;4.90;;;;;;;30.00;29.69;99683.47;7763158;32;39260;-72
2022/06/05 17:32:07;;;;;;;6.47;4.30;;;;;;;29.05;31.23;99704.41;7750879;32;39851;-72
2022/06/05 17:36:52;;;;;;;9.93;5.35;;;;;;;29.06;30.96;99705.97;7764379;32;37918;-72
2022/06/05 17:41:25;;;;;;;10.20;5.18;;;;;;;28.70;31.61;99691.13;7760619;32;38419;-72
2022/06/05 17:45:45;;;;;;;7.28;4.53;;;;;;;28.88;31.51;99679.94;7764603;32;39275;-71
2022/06/05 17:50:27;;;;;;;10.38;5.95;;;;;;;28.61;32.23;99678.28;7762998;32;40873;-71
2022/06/05 17:54:52;;;;;;;5.35;3.97;;;;;;;28.65;32.70;99669.88;7752076;32;38936;-71
2022/06/05 17:59:24;;;;;;;6.20;4.50;;;;;;;28.29;33.35;99669.75;7764398;32;37666;-73
2022/06/05 18:03:42;;;;;;;7.00;4.30;;;;;;;28.04;34.30;99670.44;7763482;32;39864;-71
2022/06/05 18:08:06;;;;;;;13.25;4.40;;;;;;;27.94;34.51;99676.81;7763431;32;39897;-71
2022/06/05 18:12:22;;;;;;;7.57;4.37;;;;;;;27.87;34.79;99669.16;7763653;32;38624;-76
2022/06/05 18:16:43;;;;;;;9.07;5.85;;;;;;;27.83;36.57;99675.94;7762815;32;37612;-77
2022/06/05 18:21:04;;;;;;;6.80;4.70;;;;;;;27.80;35.84;99671.09;7762674;32;40028;-77
2022/06/05 18:25:42;;;;;;;13.30;8.63;;;;;;;27.62;36.84;99671.81;7762732;32;40616;-71
2022/06/05 18:30:19;;;;;;;14.43;7.28;;;;;;;27.39;37.23;99668.44;7755399;32;262353;-71
2022/06/05 18:34:43;;;;;;;8.50;5.90;;;;;;;26.92;38.15;99680.06;7763922;32;37911;-73
2022/06/05 18:38:59;;;;;;;9.45;5.97;;;;;;;26.86;38.66;99681.59;7763788;32;39389;-73
2022/06/05 18:43:27;;;;;;;9.35;5.60;;;;;;;26.83;38.43;99687.13;7763289;32;40951;-72
2022/06/05 18:47:54;;;;;;;11.25;5.37;;;;;;;26.48;39.07;99694.75;7762044;32;38854;-71
2022/06/05 18:52:18;;;;;;;12.32;4.65;;;;;;;26.36;39.09;99697.78;7763237;32;37811;-71
2022/06/05 18:56:37;;;;;;;6.82;4.55;;;;;;;26.17;39.44;99685.59;7763125;32;39005;-72
2022/06/05 19:00:54;;;;;;;7.45;4.60;;;;;;;26.05;39.53;99688.63;7763151;32;40704;-71
2022/06/05 19:05:35;;;;;;;8.27;4.60;;;;;;;26.04;39.51;99681.44;7762288;32;37862;-72
2022/06/05 19:09:53;;;;;;;7.68;4.82;;;;;;;25.83;39.98;99691.09;7761394;32;37046;-70
2022/06/05 19:14:20;;;;;;;9.25;5.15;;;;;;;25.69;40.88;99702.06;7762956;32;38284;-71
2022/06/05 19:18:44;;;;;;;10.52;5.50;;;;;;;25.55;40.90;99702.66;7761638;32;40800;-77
2022/06/05 19:23:04;;;;;;;8.52;5.28;;;;;;;25.61;43.04;99708.72;7766056;32;37863;-76
2022/06/05 19:27:23;;;;;;;8.02;5.20;;;;;;;25.33;42.43;99715.47;7775420;32;37492;-80
2022/06/05 19:31:43;;;;;;;9.77;4.93;;;;;;;25.28;42.28;99724.16;7739543;32;39976;-71
2022/06/05 19:41:07;;;;;;;8.57;5.15;;;;;;;25.03;42.58;99757.16;7738314;32;37878;-71
2022/06/05 19:45:30;;;;;;;6.93;4.87;;;;;;;24.73;43.73;99755.81;7739056;32;37741;-70
2022/06/05 19:49:51;;;;;;;7.55;5.05;;;;;;;24.53;43.39;99762.56;7739084;32;39294;-70
2022/06/05 19:54:24;;;;;;;7.93;5.22;;;;;;;24.38;43.93;99776.16;7737752;32;39992;-71
2022/06/05 19:58:47;;;;;;;12.40;5.60;;;;;;;24.32;44.31;99777.66;7737809;32;37964;-71
2022/06/05 20:03:10;;;;;;;7.80;5.45;;;;;;;24.24;44.77;99777.84;7758335;32;37439;-71
2022/06/05 20:07:39;;;;;;;9.82;6.15;;;;;;;24.16;44.55;99776.88;7765543;32;40070;-70
2022/06/05 20:12:22;;;;;;;9.25;5.40;;;;;;;23.73;44.81;99787.00;7764260;32;40051;-70
2022/06/05 20:21:18;;;;;;;9.35;5.62;;;;;;;23.81;43.67;99788.81;7764731;32;36672;-71
2022/06/05 20:25:43;;;;;;;8.85;5.47;;;;;;;23.91;43.08;99799.41;7765697;32;38976;-70
2022/06/05 20:30:01;;;;;;;10.63;5.47;;;;;;;23.49;43.39;99799.94;7764078;32;39596;-70
2022/06/05 20:34:30;;;;;;;9.27;5.50;;;;;;;23.78;42.21;99797.84;7763961;32;37760;-70
2022/06/05 20:38:52;;;;;;;6.78;5.05;;;;;;;23.91;41.28;99793.81;7765944;32;37559;-71
2022/06/05 20:43:09;;;;;;;6.82;5.30;;;;;;;24.00;41.15;99783.28;7765655;32;39038;-71
2022/06/05 20:47:47;;;;;;;8.10;5.43;;;;;;;24.02;40.18;99765.44;7765522;32;39958;-72
2022/06/05 20:52:06;;;;;;;7.75;5.18;;;;;;;23.86;40.62;99766.28;7764491;32;38803;-71
2022/06/05 20:56:33;;;;;;;12.82;5.80;;;;;;;23.83;39.94;99752.28;7763721;32;36958;-71
2022/06/05 21:00:56;;;;;;;8.48;5.10;;;;;;;23.96;39.72;99734.28;7765203;32;39217;-71
2022/06/05 21:10:05;;;;;;;9.70;5.00;;;;;;;23.87;39.40;99737.28;7743742;32;38528;-72
2022/06/05 21:18:58;;;;;;;6.90;4.80;;;;;;;23.88;39.39;99721.38;7762969;32;40019;-71
2022/06/05 21:23:16;;;;;;;7.70;5.28;;;;;;;23.63;39.68;99722.38;7766039;32;39783;-71
2022/06/05 21:27:37;;;;;;;7.45;4.93;;;;;;;23.74;40.21;99724.59;7789004;32;37651;-71
2022/06/05 21:32:00;;;;;;;9.53;5.23;;;;;;;23.54;40.16;99724.56;7737859;32;36796;-71
2022/06/05 21:36:18;;;;;;;9.73;5.50;;;;;;;23.33;41.45;99718.47;7748233;32;40743;-70